Sea Success — VRS4325 — position and weather

sailwx.info

Track history (hours):
 
Tides and Currents Weather Stations Pressure Air Temp Water Temp Dewpoint Dewpoint Depression Visibility Wind Speed Wind Dir Waves Ship Positions

Sea Success

Last reported at 2017-May-25 11:39 UTC. Time now 2017-May-25 12:14 UTC.
Position N 22°18' E 114°09'.

Length 27 m.

Type: High speed craft. MMSI: 477995071.

Date/timePositionNaut miles runAvg speedWind from/ knotsBaromVisibWave heightAir tempDewpointWater temp
2017-May-25 11:39N 22°18' E 114°09'1 3.2
2017-May-25 11:22N 22°17' E 114°10'2 6.4
2017-May-25 11:00N 22°20' E 114°09'0 0.0
2017-May-25 10:22N 22°20' E 114°09'2 1.3
2017-May-25 08:55N 22°18' E 114°09'1 1.7
2017-May-25 08:30N 22°17' E 114°10'1 0.7
2017-May-25 07:22N 22°18' E 114°09'1 2.0
2017-May-25 06:55N 22°17' E 114°10'1 0.3
2017-May-25 04:23N 22°18' E 114°09'1 1.8
2017-May-25 03:55N 22°17' E 114°10'1 0.3
2017-May-25 01:22N 22°18' E 114°09'1 1.5
2017-May-25 01:00N 22°17' E 114°09'0 0.5
2017-May-25 00:07N 22°18' E 114°09'1 2.6
2017-May-24 23:48N 22°17' E 114°10'1 0.1
2017-May-24 16:37N 22°18' E 114°09'1 1.2
2017-May-24 15:53N 22°17' E 114°10'1 0.8
2017-May-24 14:53N 22°18' E 114°09'1 1.3
2017-May-24 14:11N 22°17' E 114°10'1 1.1
2017-May-24 13:21N 22°18' E 114°09'1 2.0
2017-May-24 12:54N 22°17' E 114°10'1 0.6
2017-May-24 11:38N 22°18' E 114°09'1 0.5
2017-May-24 10:06N 22°17' E 114°10'0 1.4
2017-May-24 10:00N 22°17' E 114°09'1 0.7
2017-May-24 08:56N 22°18' E 114°09'1 2.1
2017-May-24 08:30N 22°17' E 114°10'1 0.3
2017-May-24 05:51N 22°18' E 114°09'1 1.7
2017-May-24 05:24N 22°17' E 114°10'1 0.3
2017-May-24 02:53N 22°18' E 114°09'1 1.6
2017-May-24 02:26N 22°17' E 114°10'2 1.6
2017-May-24 01:00N 22°20' E 114°09'2 4.1
2017-May-24 00:27N 22°17' E 114°09'1 0.7
2017-May-23 23:26N 22°18' E 114°09'1 0.2
2017-May-23 20:05N 22°17' E 114°10'0 0.2
2017-May-23 20:00N 22°17' E 114°10'1 1.0
2017-May-23 19:08N 22°18' E 114°09'1 0.2
2017-May-23 14:16N 22°17' E 114°10'1 1.0
2017-May-23 13:22N 22°18' E 114°09'1 2.0
2017-May-23 12:55N 22°17' E 114°10'1 0.4
2017-May-23 11:36N 22°18' E 114°09'1 0.4
2017-May-23 10:10N 22°17' E 114°10'1 0.5
2017-May-23 08:54N 22°18' E 114°09'1 1.4
2017-May-23 08:30N 22°17' E 114°10'1 0.2
2017-May-23 05:51N 22°18' E 114°09'1 1.5
2017-May-23 05:24N 22°17' E 114°10'1 0.4
2017-May-23 02:52N 22°18' E 114°09'1 2.2
2017-May-23 02:26N 22°17' E 114°10'2 1.5
2017-May-23 00:52N 22°20' E 114°09'2 5.3
2017-May-23 00:26N 22°17' E 114°09'1 0.8
2017-May-22 23:26N 22°18' E 114°09'1 0.3
2017-May-22 20:04N 22°17' E 114°10'0 1.4
2017-May-22 20:01N 22°17' E 114°10'1 0.9
2017-May-22 19:08N 22°18' E 114°09'1 0.2
2017-May-22 14:12N 22°17' E 114°10'1 1.0
2017-May-22 13:22N 22°18' E 114°09'1 1.8
2017-May-22 12:53N 22°17' E 114°10'1 0.6
2017-May-22 11:39N 22°18' E 114°09'1 0.5
2017-May-22 10:10N 22°17' E 114°10'1 0.7
2017-May-22 08:55N 22°18' E 114°09'1 1.6
2017-May-22 08:24N 22°17' E 114°10'1 0.3
2017-May-22 05:51N 22°18' E 114°09'1 1.7
2017-May-22 05:23N 22°17' E 114°10'1 0.2
2017-May-22 02:53N 22°18' E 114°09'0 0.9
2017-May-22 02:25N 22°17' E 114°09'2 1.5
2017-May-22 00:59N 22°20' E 114°09'2 4.2
2017-May-22 00:27N 22°17' E 114°09'1 0.7
2017-May-21 23:27N 22°18' E 114°09'1 0.3
2017-May-21 20:07N 22°17' E 114°10'0 2.5
2017-May-21 20:01N 22°17' E 114°09'0 0.5
2017-May-21 19:07N 22°18' E 114°09'1 0.3
2017-May-21 16:01N 22°17' E 114°10'0 0.0
2017-May-21 14:00N 22°17' E 114°10'1 0.6
2017-May-21 12:30N 22°18' E 114°09'1 1.5
2017-May-21 11:53N 22°17' E 114°10'1 0.8
2017-May-21 10:47N 22°18' E 114°09'1 2.0
2017-May-21 10:21N 22°17' E 114°10'1 0.7
2017-May-21 09:08N 22°18' E 114°09'1 1.4
2017-May-21 08:34N 22°17' E 114°10'1 0.4
2017-May-21 05:47N 22°18' E 114°09'1 2.4
2017-May-21 05:22N 22°17' E 114°10'0 0.2
2017-May-21 04:53N 22°17' E 114°09'1 0.9
2017-May-21 04:06N 22°18' E 114°09'1 7.8
2017-May-21 04:01N 22°17' E 114°10'1 1.0
2017-May-21 03:08N 22°18' E 114°09'1 7.1
2017-May-21 03:00N 22°17' E 114°10'1 1.0
2017-May-21 02:09N 22°18' E 114°09'1 5.9
2017-May-21 02:00N 22°17' E 114°10'1 1.2
2017-May-21 01:11N 22°18' E 114°09'0 0.1
2017-May-21 00:58N 22°18' E 114°09'1 1.2
2017-May-21 00:27N 22°19' E 114°09'1 0.8
2017-May-20 22:57N 22°18' E 114°09'1 0.3
2017-May-20 20:04N 22°17' E 114°10'0 0.9
2017-May-20 20:01N 22°17' E 114°10'1 0.8
2017-May-20 19:07N 22°18' E 114°09'1 0.1
2017-May-20 14:13N 22°17' E 114°10'1 0.7
2017-May-20 13:21N 22°18' E 114°09'1 1.3
2017-May-20 12:53N 22°17' E 114°10'1 0.7
2017-May-20 11:37N 22°18' E 114°09'1 2.2
2017-May-20 11:13N 22°17' E 114°10'1 0.7
2017-May-20 10:08N 22°18' E 114°09'1 0.4
2017-May-20 08:24N 22°17' E 114°10'1 0.4
2017-May-20 05:53N 22°18' E 114°09'1 2.0
2017-May-20 05:25N 22°17' E 114°10'1 0.3
2017-May-20 02:52N 22°18' E 114°09'1 2.0
2017-May-20 02:26N 22°17' E 114°10'2 1.6
2017-May-20 00:58N 22°20' E 114°09'2 4.5
2017-May-20 00:28N 22°17' E 114°09'1 0.7
2017-May-19 23:26N 22°18' E 114°09'1 0.3
2017-May-19 20:07N 22°17' E 114°10'1 0.8
2017-May-19 19:07N 22°18' E 114°09'1 0.2
2017-May-19 14:16N 22°17' E 114°10'1 1.0
2017-May-19 13:22N 22°18' E 114°09'1 1.8
2017-May-19 12:54N 22°17' E 114°10'1 0.6
2017-May-19 11:37N 22°18' E 114°09'1 0.5
2017-May-19 10:09N 22°17' E 114°10'0 3.7
2017-May-19 10:01N 22°18' E 114°09'0 0.3
2017-May-19 08:56N 22°18' E 114°09'1 2.3
2017-May-19 08:30N 22°17' E 114°10'1 0.4
2017-May-19 05:53N 22°18' E 114°09'1 2.0
2017-May-19 05:26N 22°17' E 114°10'1 0.3
2017-May-19 02:53N 22°18' E 114°09'1 1.7
2017-May-19 02:25N 22°17' E 114°10'2 0.8
2017-May-19 00:38N 22°19' E 114°09'111.3
2017-May-19 00:30N 22°17' E 114°09'1 0.6
2017-May-18 23:26N 22°18' E 114°09'1 0.2
2017-May-18 20:04N 22°17' E 114°10'0 1.1
2017-May-18 20:00N 22°17' E 114°10'1 1.0
2017-May-18 19:08N 22°18' E 114°09'1 0.2
2017-May-18 14:14N 22°17' E 114°10'1 1.0
2017-May-18 13:23N 22°18' E 114°09'1 1.8
2017-May-18 12:53N 22°17' E 114°10'1 0.6
2017-May-18 11:38N 22°18' E 114°09'1 0.5
2017-May-18 10:08N 22°17' E 114°10'1 0.6
2017-May-18 08:55N 22°18' E 114°09'1 2.4
2017-May-18 08:30N 22°17' E 114°10'1 0.4
2017-May-18 05:52N 22°18' E 114°09'1 1.7
2017-May-18 05:26N 22°17' E 114°10'1 0.3
2017-May-18 02:53N 22°18' E 114°09'1 1.7
2017-May-18 02:25N 22°17' E 114°10'2 1.4
2017-May-18 00:45N 22°19' E 114°09'2 7.9
2017-May-18 00:28N 22°17' E 114°09'1 0.6
2017-May-17 23:25N 22°18' E 114°09'1 0.2
2017-May-17 20:07N 22°17' E 114°10'0 3.3
2017-May-17 20:00N 22°17' E 114°09'0 0.5
2017-May-17 19:08N 22°18' E 114°09'1 0.2
2017-May-17 14:17N 22°17' E 114°10'1 0.9
2017-May-17 13:22N 22°18' E 114°09'1 1.8
2017-May-17 12:54N 22°17' E 114°10'1 0.7
2017-May-17 11:37N 22°18' E 114°09'1 0.6
2017-May-17 10:07N 22°17' E 114°10'0 3.0
2017-May-17 10:00N 22°17' E 114°09'0 0.3
2017-May-17 08:55N 22°18' E 114°09'1 1.7
2017-May-17 08:30N 22°17' E 114°10'1 0.4
2017-May-17 05:52N 22°18' E 114°09'1 1.9
2017-May-17 05:24N 22°17' E 114°10'0 0.2
2017-May-17 02:51N 22°18' E 114°09'0 1.0
2017-May-17 02:25N 22°17' E 114°10'2 1.3
2017-May-17 00:42N 22°19' E 114°09'211.2
2017-May-17 00:30N 22°17' E 114°09'1 0.6
2017-May-16 23:26N 22°18' E 114°09'1 0.2
2017-May-16 20:05N 22°17' E 114°10'0 0.2
2017-May-16 20:00N 22°17' E 114°10'1 0.8
2017-May-16 19:07N 22°18' E 114°09'1 0.2
2017-May-16 14:17N 22°17' E 114°10'1 0.8
2017-May-16 13:21N 22°18' E 114°09'1 1.6
2017-May-16 12:55N 22°17' E 114°10'1 0.6
2017-May-16 11:38N 22°18' E 114°09'1 0.4
2017-May-16 10:08N 22°17' E 114°09'1 0.6
2017-May-16 08:56N 22°18' E 114°09'1 1.8
2017-May-16 08:28N 22°17' E 114°10'1 0.3
2017-May-16 05:52N 22°18' E 114°09'1 1.7
2017-May-16 05:25N 22°17' E 114°10'1 0.3
2017-May-16 02:52N 22°18' E 114°09'1 2.2
2017-May-16 02:28N 22°17' E 114°10'2 1.3
2017-May-16 01:01N 22°19' E 114°09'0 1.1
2017-May-16 00:37N 22°19' E 114°09'113.8
2017-May-16 00:30N 22°17' E 114°09'1 0.7
2017-May-15 23:26N 22°18' E 114°09'1 0.3
2017-May-15 20:07N 22°17' E 114°10'1 5.0
2017-May-15 20:00N 22°18' E 114°09'0 0.3
2017-May-15 19:07N 22°18' E 114°09'1 0.2
2017-May-15 14:21N 22°17' E 114°10'1 0.9
2017-May-15 13:24N 22°18' E 114°09'1 1.9
2017-May-15 12:56N 22°17' E 114°10'  
Track history (hours):
 
Tides and Currents Weather Stations Pressure Air Temp Water Temp Dewpoint Dewpoint Depression Visibility Wind Speed Wind Dir Waves Ship Positions

Sea Success

Last reported at 2017-May-25 11:39 UTC. Time now 2017-May-25 12:14 UTC.
Position N 22°18' E 114°09'.

Length 27 m.

Type: High speed craft. MMSI: 477995071.

Date/timePositionNaut miles runAvg speedWind from/ knotsBaromVisibWave heightAir tempDewpointWater temp
2017-May-25 11:39N 22°18' E 114°09'1 3.2
2017-May-25 11:22N 22°17' E 114°10'2 6.4
2017-May-25 11:00N 22°20' E 114°09'0 0.0
2017-May-25 10:22N 22°20' E 114°09'2 1.3
2017-May-25 08:55N 22°18' E 114°09'1 1.7
2017-May-25 08:30N 22°17' E 114°10'1 0.7
2017-May-25 07:22N 22°18' E 114°09'1 2.0
2017-May-25 06:55N 22°17' E 114°10'1 0.3
2017-May-25 04:23N 22°18' E 114°09'1 1.8
2017-May-25 03:55N 22°17' E 114°10'1 0.3
2017-May-25 01:22N 22°18' E 114°09'1 1.5
2017-May-25 01:00N 22°17' E 114°09'0 0.5
2017-May-25 00:07N 22°18' E 114°09'1 2.6
2017-May-24 23:48N 22°17' E 114°10'1 0.1
2017-May-24 16:37N 22°18' E 114°09'1 1.2
2017-May-24 15:53N 22°17' E 114°10'1 0.8
2017-May-24 14:53N 22°18' E 114°09'1 1.3
2017-May-24 14:11N 22°17' E 114°10'1 1.1
2017-May-24 13:21N 22°18' E 114°09'1 2.0
2017-May-24 12:54N 22°17' E 114°10'1 0.6
2017-May-24 11:38N 22°18' E 114°09'1 0.5
2017-May-24 10:06N 22°17' E 114°10'0 1.4
2017-May-24 10:00N 22°17' E 114°09'1 0.7
2017-May-24 08:56N 22°18' E 114°09'1 2.1
2017-May-24 08:30N 22°17' E 114°10'1 0.3
2017-May-24 05:51N 22°18' E 114°09'1 1.7
2017-May-24 05:24N 22°17' E 114°10'1 0.3
2017-May-24 02:53N 22°18' E 114°09'1 1.6
2017-May-24 02:26N 22°17' E 114°10'2 1.6
2017-May-24 01:00N 22°20' E 114°09'2 4.1
2017-May-24 00:27N 22°17' E 114°09'1 0.7
2017-May-23 23:26N 22°18' E 114°09'1 0.2
2017-May-23 20:05N 22°17' E 114°10'0 0.2
2017-May-23 20:00N 22°17' E 114°10'1 1.0
2017-May-23 19:08N 22°18' E 114°09'1 0.2
2017-May-23 14:16N 22°17' E 114°10'1 1.0
2017-May-23 13:22N 22°18' E 114°09'1 2.0
2017-May-23 12:55N 22°17' E 114°10'1 0.4
2017-May-23 11:36N 22°18' E 114°09'1 0.4
2017-May-23 10:10N 22°17' E 114°10'1 0.5
2017-May-23 08:54N 22°18' E 114°09'1 1.4
2017-May-23 08:30N 22°17' E 114°10'1 0.2
2017-May-23 05:51N 22°18' E 114°09'1 1.5
2017-May-23 05:24N 22°17' E 114°10'1 0.4
2017-May-23 02:52N 22°18' E 114°09'1 2.2
2017-May-23 02:26N 22°17' E 114°10'2 1.5
2017-May-23 00:52N 22°20' E 114°09'2 5.3
2017-May-23 00:26N 22°17' E 114°09'1 0.8
2017-May-22 23:26N 22°18' E 114°09'1 0.3
2017-May-22 20:04N 22°17' E 114°10'0 1.4
2017-May-22 20:01N 22°17' E 114°10'1 0.9
2017-May-22 19:08N 22°18' E 114°09'1 0.2
2017-May-22 14:12N 22°17' E 114°10'1 1.0
2017-May-22 13:22N 22°18' E 114°09'1 1.8
2017-May-22 12:53N 22°17' E 114°10'1 0.6
2017-May-22 11:39N 22°18' E 114°09'1 0.5
2017-May-22 10:10N 22°17' E 114°10'1 0.7
2017-May-22 08:55N 22°18' E 114°09'1 1.6
2017-May-22 08:24N 22°17' E 114°10'1 0.3
2017-May-22 05:51N 22°18' E 114°09'1 1.7
2017-May-22 05:23N 22°17' E 114°10'1 0.2
2017-May-22 02:53N 22°18' E 114°09'0 0.9
2017-May-22 02:25N 22°17' E 114°09'2 1.5
2017-May-22 00:59N 22°20' E 114°09'2 4.2
2017-May-22 00:27N 22°17' E 114°09'1 0.7
2017-May-21 23:27N 22°18' E 114°09'1 0.3
2017-May-21 20:07N 22°17' E 114°10'0 2.5
2017-May-21 20:01N 22°17' E 114°09'0 0.5
2017-May-21 19:07N 22°18' E 114°09'1 0.3
2017-May-21 16:01N 22°17' E 114°10'0 0.0
2017-May-21 14:00N 22°17' E 114°10'1 0.6
2017-May-21 12:30N 22°18' E 114°09'1 1.5
2017-May-21 11:53N 22°17' E 114°10'1 0.8
2017-May-21 10:47N 22°18' E 114°09'1 2.0
2017-May-21 10:21N 22°17' E 114°10'1 0.7
2017-May-21 09:08N 22°18' E 114°09'1 1.4
2017-May-21 08:34N 22°17' E 114°10'1 0.4
2017-May-21 05:47N 22°18' E 114°09'1 2.4
2017-May-21 05:22N 22°17' E 114°10'0 0.2
2017-May-21 04:53N 22°17' E 114°09'1 0.9
2017-May-21 04:06N 22°18' E 114°09'1 7.8
2017-May-21 04:01N 22°17' E 114°10'1 1.0
2017-May-21 03:08N 22°18' E 114°09'1 7.1
2017-May-21 03:00N 22°17' E 114°10'1 1.0
2017-May-21 02:09N 22°18' E 114°09'1 5.9
2017-May-21 02:00N 22°17' E 114°10'1 1.2
2017-May-21 01:11N 22°18' E 114°09'0 0.1
2017-May-21 00:58N 22°18' E 114°09'1 1.2
2017-May-21 00:27N 22°19' E 114°09'1 0.8
2017-May-20 22:57N 22°18' E 114°09'1 0.3
2017-May-20 20:04N 22°17' E 114°10'0 0.9
2017-May-20 20:01N 22°17' E 114°10'1 0.8
2017-May-20 19:07N 22°18' E 114°09'1 0.1
2017-May-20 14:13N 22°17' E 114°10'1 0.7
2017-May-20 13:21N 22°18' E 114°09'1 1.3
2017-May-20 12:53N 22°17' E 114°10'1 0.7
2017-May-20 11:37N 22°18' E 114°09'1 2.2
2017-May-20 11:13N 22°17' E 114°10'1 0.7
2017-May-20 10:08N 22°18' E 114°09'1 0.4
2017-May-20 08:24N 22°17' E 114°10'1 0.4
2017-May-20 05:53N 22°18' E 114°09'1 2.0
2017-May-20 05:25N 22°17' E 114°10'1 0.3
2017-May-20 02:52N 22°18' E 114°09'1 2.0
2017-May-20 02:26N 22°17' E 114°10'2 1.6
2017-May-20 00:58N 22°20' E 114°09'2 4.5
2017-May-20 00:28N 22°17' E 114°09'1 0.7
2017-May-19 23:26N 22°18' E 114°09'1 0.3
2017-May-19 20:07N 22°17' E 114°10'1 0.8
2017-May-19 19:07N 22°18' E 114°09'1 0.2
2017-May-19 14:16N 22°17' E 114°10'1 1.0
2017-May-19 13:22N 22°18' E 114°09'1 1.8
2017-May-19 12:54N 22°17' E 114°10'1 0.6
2017-May-19 11:37N 22°18' E 114°09'1 0.5
2017-May-19 10:09N 22°17' E 114°10'0 3.7
2017-May-19 10:01N 22°18' E 114°09'0 0.3
2017-May-19 08:56N 22°18' E 114°09'1 2.3
2017-May-19 08:30N 22°17' E 114°10'1 0.4
2017-May-19 05:53N 22°18' E 114°09'1 2.0
2017-May-19 05:26N 22°17' E 114°10'1 0.3
2017-May-19 02:53N 22°18' E 114°09'1 1.7
2017-May-19 02:25N 22°17' E 114°10'2 0.8
2017-May-19 00:38N 22°19' E 114°09'111.3
2017-May-19 00:30N 22°17' E 114°09'1 0.6
2017-May-18 23:26N 22°18' E 114°09'1 0.2
2017-May-18 20:04N 22°17' E 114°10'0 1.1
2017-May-18 20:00N 22°17' E 114°10'1 1.0
2017-May-18 19:08N 22°18' E 114°09'1 0.2
2017-May-18 14:14N 22°17' E 114°10'1 1.0
2017-May-18 13:23N 22°18' E 114°09'1 1.8
2017-May-18 12:53N 22°17' E 114°10'1 0.6
2017-May-18 11:38N 22°18' E 114°09'1 0.5
2017-May-18 10:08N 22°17' E 114°10'1 0.6
2017-May-18 08:55N 22°18' E 114°09'1 2.4
2017-May-18 08:30N 22°17' E 114°10'1 0.4
2017-May-18 05:52N 22°18' E 114°09'1 1.7
2017-May-18 05:26N 22°17' E 114°10'1 0.3
2017-May-18 02:53N 22°18' E 114°09'1 1.7
2017-May-18 02:25N 22°17' E 114°10'2 1.4
2017-May-18 00:45N 22°19' E 114°09'2 7.9
2017-May-18 00:28N 22°17' E 114°09'1 0.6
2017-May-17 23:25N 22°18' E 114°09'1 0.2
2017-May-17 20:07N 22°17' E 114°10'0 3.3
2017-May-17 20:00N 22°17' E 114°09'0 0.5
2017-May-17 19:08N 22°18' E 114°09'1 0.2
2017-May-17 14:17N 22°17' E 114°10'1 0.9
2017-May-17 13:22N 22°18' E 114°09'1 1.8
2017-May-17 12:54N 22°17' E 114°10'1 0.7
2017-May-17 11:37N 22°18' E 114°09'1 0.6
2017-May-17 10:07N 22°17' E 114°10'0 3.0
2017-May-17 10:00N 22°17' E 114°09'0 0.3
2017-May-17 08:55N 22°18' E 114°09'1 1.7
2017-May-17 08:30N 22°17' E 114°10'1 0.4
2017-May-17 05:52N 22°18' E 114°09'1 1.9
2017-May-17 05:24N 22°17' E 114°10'0 0.2
2017-May-17 02:51N 22°18' E 114°09'0 1.0
2017-May-17 02:25N 22°17' E 114°10'2 1.3
2017-May-17 00:42N 22°19' E 114°09'211.2
2017-May-17 00:30N 22°17' E 114°09'1 0.6
2017-May-16 23:26N 22°18' E 114°09'1 0.2
2017-May-16 20:05N 22°17' E 114°10'0 0.2
2017-May-16 20:00N 22°17' E 114°10'1 0.8
2017-May-16 19:07N 22°18' E 114°09'1 0.2
2017-May-16 14:17N 22°17' E 114°10'1 0.8
2017-May-16 13:21N 22°18' E 114°09'1 1.6
2017-May-16 12:55N 22°17' E 114°10'1 0.6
2017-May-16 11:38N 22°18' E 114°09'1 0.4
2017-May-16 10:08N 22°17' E 114°09'1 0.6
2017-May-16 08:56N 22°18' E 114°09'1 1.8
2017-May-16 08:28N 22°17' E 114°10'1 0.3
2017-May-16 05:52N 22°18' E 114°09'1 1.7
2017-May-16 05:25N 22°17' E 114°10'1 0.3
2017-May-16 02:52N 22°18' E 114°09'1 2.2
2017-May-16 02:28N 22°17' E 114°10'2 1.3
2017-May-16 01:01N 22°19' E 114°09'0 1.1
2017-May-16 00:37N 22°19' E 114°09'113.8
2017-May-16 00:30N 22°17' E 114°09'1 0.7
2017-May-15 23:26N 22°18' E 114°09'1 0.3
2017-May-15 20:07N 22°17' E 114°10'1 5.0
2017-May-15 20:00N 22°18' E 114°09'0 0.3
2017-May-15 19:07N 22°18' E 114°09'1 0.2
2017-May-15 14:21N 22°17' E 114°10'1 0.9
2017-May-15 13:24N 22°18' E 114°09'1 1.9
2017-May-15 12:56N 22°17' E 114°10'  

Dump ship's entire track history